createdAt,value
2023-03-07T00:01:37.733Z,99495.28
2023-03-07T00:04:09.549Z,99494.47
2023-03-07T00:06:41.199Z,99487.44
2023-03-07T00:09:13.023Z,99491.16
2023-03-07T00:11:44.538Z,99485.94
2023-03-07T00:14:16.361Z,99485.72
2023-03-07T00:16:47.897Z,99473.06
2023-03-07T00:19:19.686Z,99471.44
2023-03-07T00:21:51.274Z,99472.41
2023-03-07T00:24:23.150Z,99467.88
2023-03-07T00:26:54.639Z,99460.34
2023-03-07T00:29:26.197Z,99457.38
2023-03-07T00:31:57.737Z,99451.16
2023-03-07T00:34:29.320Z,99441.69
2023-03-07T00:37:00.853Z,99445.28
2023-03-07T00:39:32.372Z,99441.88
2023-03-07T00:42:03.874Z,99448.25
2023-03-07T00:44:35.700Z,99432.22
2023-03-07T00:47:07.226Z,99421.16
2023-03-07T00:49:39.049Z,99421.50
2023-03-07T00:52:10.603Z,99420.19
2023-03-07T00:54:42.417Z,99403.50
2023-03-07T00:57:13.960Z,99400.25
2023-03-07T00:59:45.498Z,99398.63
2023-03-07T01:02:17.339Z,99388.22
2023-03-07T01:04:48.846Z,99388.88
2023-03-07T01:07:20.716Z,99383.28
2023-03-07T01:09:53.171Z,99385.22
2023-03-07T01:12:24.864Z,99375.50
2023-03-07T01:14:56.382Z,99374.34
2023-03-07T01:17:27.933Z,99364.72
2023-03-07T01:19:59.432Z,99375.09
2023-03-07T01:22:30.932Z,99355.69
2023-03-07T01:25:02.433Z,99351.19
2023-03-07T01:27:33.959Z,99353.09
2023-03-07T01:30:05.463Z,99343.81
2023-03-07T01:32:37.053Z,99329.56
2023-03-07T01:35:08.685Z,99331.03
2023-03-07T01:37:40.481Z,99326.97
2023-03-07T01:40:12.000Z,99317.88
2023-03-07T01:42:43.507Z,99301.84
2023-03-07T01:45:15.001Z,99307.56
2023-03-07T01:47:46.559Z,99289.81
2023-03-07T01:50:18.097Z,99275.75
2023-03-07T01:52:49.806Z,99278.00
2023-03-07T01:55:21.378Z,99266.19
2023-03-07T01:57:52.956Z,99265.84
2023-03-07T02:03:33.000Z,99261.44
2023-03-07T02:06:04.984Z,99246.28
2023-03-07T02:08:36.508Z,99243.16
2023-03-07T02:11:08.364Z,99232.31
2023-03-07T02:13:39.920Z,99229.59
2023-03-07T02:16:11.782Z,99224.38
2023-03-07T02:18:43.353Z,99220.66
2023-03-07T02:21:15.177Z,99210.09
2023-03-07T02:23:47.004Z,99207.53
2023-03-07T02:26:18.518Z,99193.81
2023-03-07T02:28:50.448Z,99194.38
2023-03-07T02:31:22.021Z,99195.63
2023-03-07T02:33:53.836Z,99182.56
2023-03-07T02:36:26.137Z,99174.81
2023-03-07T02:38:57.960Z,99169.75
2023-03-07T02:41:29.490Z,99170.00
2023-03-07T02:44:01.259Z,99159.16
2023-03-07T02:46:32.835Z,99156.53
2023-03-07T02:49:04.740Z,99155.00
2023-03-07T02:51:36.260Z,99141.72
2023-03-07T02:54:08.723Z,99140.53
2023-03-07T02:56:40.258Z,99136.16
2023-03-07T02:59:11.800Z,99120.44
2023-03-07T03:01:43.398Z,99116.41
2023-03-07T03:04:15.321Z,99118.41
2023-03-07T03:06:46.888Z,99108.16
2023-03-07T03:09:18.789Z,99109.22
2023-03-07T03:11:50.309Z,99095.47
2023-03-07T03:14:22.035Z,99095.47
2023-03-07T03:16:53.604Z,99086.41
2023-03-07T03:19:25.437Z,99080.19
2023-03-07T03:21:57.046Z,99072.13
2023-03-07T03:24:28.566Z,99059.91
2023-03-07T03:27:00.133Z,98919.88
2023-03-07T03:29:31.647Z,99049.44
2023-03-07T03:32:03.215Z,99049.88
2023-03-07T03:34:34.777Z,99045.66
2023-03-07T03:37:07.860Z,99035.22
2023-03-07T03:39:39.999Z,99031.41
2023-03-07T03:42:11.492Z,99018.28
2023-03-07T03:44:43.395Z,99019.91
2023-03-07T03:47:14.908Z,99015.28
2023-03-07T03:49:46.776Z,99016.91
2023-03-07T03:52:18.386Z,99005.41
2023-03-07T03:54:50.383Z,98999.97
2023-03-07T03:57:21.981Z,99001.41
2023-03-07T03:59:54.260Z,98984.69
2023-03-07T04:02:26.698Z,98986.53
2023-03-07T04:04:58.743Z,98985.34
2023-03-07T04:07:30.271Z,98980.91
2023-03-07T04:10:01.891Z,98983.16
2023-03-07T04:12:33.389Z,98962.81
2023-03-07T04:15:05.188Z,98970.88
2023-03-07T04:17:37.011Z,98960.00
2023-03-07T04:20:14.570Z,98960.47
2023-03-07T04:22:46.140Z,98947.38
2023-03-07T04:25:17.673Z,98948.41
2023-03-07T04:27:49.198Z,98943.97
2023-03-07T04:30:21.038Z,98949.00
2023-03-07T04:32:52.533Z,98935.13
2023-03-07T04:35:24.376Z,98926.25
2023-03-07T04:37:55.883Z,98934.94
2023-03-07T04:40:27.393Z,98926.28
2023-03-07T04:42:58.886Z,98915.78
2023-03-07T04:45:30.580Z,98915.41
2023-03-07T04:48:02.104Z,98915.00
2023-03-07T04:50:33.938Z,98918.81
2023-03-07T04:53:05.450Z,98919.81
2023-03-07T04:55:37.304Z,98908.50
2023-03-07T04:58:12.898Z,98906.47
2023-03-07T05:00:44.764Z,98899.19
2023-03-07T05:03:16.340Z,98894.75
2023-03-07T05:05:48.317Z,98891.94
2023-03-07T05:08:19.828Z,98872.00
2023-03-07T05:10:51.727Z,98881.09
2023-03-07T05:13:23.235Z,98878.84
2023-03-07T05:15:55.131Z,98868.56
2023-03-07T05:18:26.684Z,98862.94
2023-03-07T05:20:58.680Z,98869.78
2023-03-07T05:23:30.192Z,98855.47
2023-03-07T05:26:01.896Z,98855.69
2023-03-07T05:28:34.035Z,98847.63
2023-03-07T05:31:05.872Z,98848.63
2023-03-07T05:33:37.424Z,98860.53
2023-03-07T05:36:09.299Z,98860.13
2023-03-07T05:38:40.829Z,98845.41
2023-03-07T05:41:13.683Z,98836.53
2023-03-07T05:43:45.181Z,98827.66
2023-03-07T05:46:17.228Z,98844.59
2023-03-07T05:48:48.804Z,98852.28
2023-03-07T05:51:20.684Z,98833.13
2023-03-07T05:53:52.249Z,98839.56
2023-03-07T05:56:24.218Z,98837.34
2023-03-07T05:58:55.794Z,98843.59
2023-03-07T06:01:27.326Z,98842.19
2023-03-07T06:03:58.922Z,98836.19
2023-03-07T06:06:30.517Z,98832.13
2023-03-07T06:09:02.079Z,98838.81
2023-03-07T06:11:33.623Z,98841.63
2023-03-07T06:14:05.178Z,98831.34
2023-03-07T06:16:36.789Z,98832.97
2023-03-07T06:19:08.460Z,98836.59
2023-03-07T06:21:40.334Z,98836.38
2023-03-07T06:24:11.853Z,98839.22
2023-03-07T06:26:43.695Z,98830.34
2023-03-07T06:29:15.218Z,98824.91
2023-03-07T06:31:47.302Z,98829.31
2023-03-07T06:34:18.879Z,98831.94
2023-03-07T06:36:50.730Z,98827.50
2023-03-07T06:39:22.305Z,98828.31
2023-03-07T06:41:54.206Z,98831.13
2023-03-07T06:44:25.714Z,98833.56
2023-03-07T06:46:57.578Z,98827.09
2023-03-07T06:49:29.091Z,98828.13
2023-03-07T06:52:00.728Z,98832.19
2023-03-07T06:54:32.283Z,98831.97
2023-03-07T06:57:04.156Z,98845.69
2023-03-07T06:59:36.011Z,98844.47
2023-03-07T07:02:07.960Z,98840.63
2023-03-07T07:04:39.881Z,98856.97
2023-03-07T07:07:11.382Z,98850.50
2023-03-07T07:09:43.246Z,98848.09
2023-03-07T07:12:14.772Z,98847.47
2023-03-07T07:14:46.475Z,98835.75
2023-03-07T07:17:18.039Z,98843.19
2023-03-07T07:19:49.919Z,98837.16
2023-03-07T07:22:21.455Z,98838.72
2023-03-07T07:24:52.985Z,98836.72
2023-03-07T07:27:24.508Z,98845.59
2023-03-07T07:29:56.030Z,98834.88
2023-03-07T07:32:27.672Z,98833.25
2023-03-07T07:34:59.634Z,98832.88
2023-03-07T07:37:31.140Z,98827.16
2023-03-07T07:40:03.256Z,98829.09
2023-03-07T07:42:34.857Z,98835.97
2023-03-07T07:45:06.576Z,98819.38
2023-03-07T07:47:38.147Z,98821.63
2023-03-07T07:50:09.987Z,98822.00
2023-03-07T07:52:41.524Z,98813.56
2023-03-07T07:55:16.503Z,98818.44
2023-03-07T07:57:48.026Z,98825.72
2023-03-07T08:00:21.561Z,98813.22
2023-03-07T08:02:53.110Z,98819.22
2023-03-07T08:05:24.929Z,98823.69
2023-03-07T08:07:56.908Z,98822.22
2023-03-07T08:10:28.420Z,98818.78
2023-03-07T08:12:59.923Z,98824.41
2023-03-07T08:15:31.505Z,98817.34
2023-03-07T08:18:03.101Z,98816.34
2023-03-07T08:20:35.782Z,98822.94
2023-03-07T08:23:07.313Z,98809.91
2023-03-07T08:25:39.198Z,98813.34
2023-03-07T08:28:10.727Z,98805.84
2023-03-07T08:30:42.437Z,98805.84
2023-03-07T08:33:14.228Z,98801.75
2023-03-07T08:35:46.022Z,98810.78
2023-03-07T08:38:17.548Z,98801.81
2023-03-07T08:40:49.639Z,98803.28
2023-03-07T08:43:21.202Z,98811.97
2023-03-07T08:45:53.285Z,98811.19
2023-03-07T08:48:24.911Z,98810.84
2023-03-07T08:50:56.744Z,98814.50
2023-03-07T08:53:28.249Z,98798.41
2023-03-07T08:56:00.045Z,98811.34
2023-03-07T08:58:31.540Z,98814.28
2023-03-07T09:01:04.068Z,98822.84
2023-03-07T09:03:35.582Z,98808.66
2023-03-07T09:06:07.440Z,98819.53
2023-03-07T09:08:38.963Z,98819.91
2023-03-07T09:11:10.690Z,98822.19
2023-03-07T09:13:51.535Z,98817.22
2023-03-07T09:16:24.573Z,98820.38
2023-03-07T09:18:56.157Z,98829.66
2023-03-07T09:21:27.723Z,98811.59
2023-03-07T09:23:59.299Z,98824.28
2023-03-07T09:26:30.857Z,98815.91
2023-03-07T09:29:02.375Z,98810.22
2023-03-07T09:31:33.979Z,98814.16
2023-03-07T09:34:05.580Z,98811.66
2023-03-07T09:36:37.609Z,98809.75
2023-03-07T09:39:14.291Z,98812.47
2023-03-07T09:41:46.185Z,98812.25
2023-03-07T09:44:17.680Z,98807.97
2023-03-07T09:46:49.551Z,98811.25
2023-03-07T09:49:21.078Z,98812.97
2023-03-07T09:51:52.906Z,98811.81
2023-03-07T09:54:24.459Z,98804.13
2023-03-07T09:56:56.394Z,98807.31
2023-03-07T09:59:27.932Z,98799.84
2023-03-07T10:01:59.738Z,98802.09
2023-03-07T10:04:33.337Z,98797.97
2023-03-07T10:07:05.375Z,98804.38
2023-03-07T10:09:36.882Z,98799.63
2023-03-07T10:12:08.401Z,98801.47
2023-03-07T10:14:39.921Z,98799.84
2023-03-07T10:17:11.677Z,98632.91
2023-03-07T10:19:43.306Z,98795.88
2023-03-07T10:22:15.191Z,98808.34
2023-03-07T10:24:48.036Z,98804.50
2023-03-07T10:27:19.851Z,98810.56
2023-03-07T10:29:51.344Z,98811.13
2023-03-07T10:32:22.915Z,98812.13
2023-03-07T10:34:54.471Z,98814.25
2023-03-07T10:37:26.353Z,98816.16
2023-03-07T10:39:59.403Z,98814.69
2023-03-07T10:42:32.157Z,98806.84
2023-03-07T10:45:04.026Z,98819.19
2023-03-07T10:47:35.734Z,98817.50
2023-03-07T10:50:07.249Z,98807.75
2023-03-07T10:52:39.133Z,98796.44
2023-03-07T10:55:10.679Z,98789.63
2023-03-07T10:57:42.188Z,98791.19
2023-03-07T11:00:13.700Z,98795.91
2023-03-07T11:02:48.434Z,98789.66
2023-03-07T11:05:19.923Z,98781.19
2023-03-07T11:07:51.435Z,98782.22
2023-03-07T11:10:22.962Z,98774.56
2023-03-07T11:12:54.790Z,98767.78
2023-03-07T11:15:27.550Z,98762.28
2023-03-07T11:17:59.597Z,98770.03
2023-03-07T11:20:31.594Z,98760.97
2023-03-07T11:23:03.313Z,98768.69
2023-03-07T11:25:34.832Z,98779.34
2023-03-07T11:28:06.825Z,98769.56
2023-03-07T11:30:38.333Z,98767.50
2023-03-07T11:33:10.034Z,98760.47
2023-03-07T11:35:41.902Z,98761.97
2023-03-07T11:38:13.930Z,98755.75
2023-03-07T11:40:45.435Z,98753.59
2023-03-07T11:43:17.149Z,98762.72
2023-03-07T11:45:48.740Z,98748.66
2023-03-07T11:48:20.637Z,98746.16
2023-03-07T11:50:52.164Z,98745.50
2023-03-07T11:53:23.967Z,98748.72
2023-03-07T11:55:55.489Z,98748.03
2023-03-07T11:58:27.078Z,98743.56
2023-03-07T12:00:58.605Z,98738.63
2023-03-07T12:03:30.687Z,98741.16
2023-03-07T12:06:02.441Z,98730.13
2023-03-07T12:08:34.076Z,98737.38
2023-03-07T12:11:06.575Z,98735.34
2023-03-07T12:13:38.110Z,98732.94
2023-03-07T12:16:10.124Z,98728.66
2023-03-07T12:18:41.994Z,98733.72
2023-03-07T12:21:13.829Z,98743.97
2023-03-07T12:23:45.367Z,98735.72
2023-03-07T12:26:17.314Z,98732.69
2023-03-07T12:28:48.799Z,98733.69
2023-03-07T12:31:20.685Z,98729.59
2023-03-07T12:33:52.279Z,98742.41
2023-03-07T12:36:24.191Z,98742.06
2023-03-07T12:38:55.774Z,98742.59
2023-03-07T12:41:27.303Z,98735.25
2023-03-07T12:43:58.836Z,98743.22
2023-03-07T12:46:30.429Z,98733.56
2023-03-07T12:49:01.956Z,98744.84
2023-03-07T12:51:33.499Z,98742.94
2023-03-07T12:54:05.020Z,98739.22
2023-03-07T12:56:36.869Z,98744.13
2023-03-07T12:59:10.015Z,98741.63
2023-03-07T13:01:41.883Z,98735.78
2023-03-07T13:04:13.451Z,98743.69
2023-03-07T13:06:45.029Z,98740.16
2023-03-07T13:09:16.538Z,98749.50
2023-03-07T13:11:48.490Z,98748.03
2023-03-07T13:14:19.995Z,98752.81
2023-03-07T13:16:54.978Z,98753.53
2023-03-07T13:19:26.878Z,98757.47
2023-03-07T13:21:58.720Z,98764.88
2023-03-07T13:24:30.248Z,98757.00
2023-03-07T13:27:02.501Z,98757.81
2023-03-07T13:29:34.040Z,98763.16
2023-03-07T13:32:05.935Z,98758.94
2023-03-07T13:34:37.558Z,98630.09
2023-03-07T13:37:09.399Z,98761.66
2023-03-07T13:39:40.901Z,98762.16
2023-03-07T13:42:12.670Z,98757.59
2023-03-07T13:44:44.183Z,98756.94
2023-03-07T13:47:16.053Z,98761.56
2023-03-07T13:49:47.650Z,98762.88
2023-03-07T13:52:19.173Z,98765.31
2023-03-07T13:54:50.878Z,98764.91
2023-03-07T13:57:22.412Z,98766.22
2023-03-07T13:59:53.931Z,98761.28
2023-03-07T14:02:25.865Z,98757.53
2023-03-07T14:04:59.120Z,98763.75
2023-03-07T14:07:31.938Z,98760.53
2023-03-07T14:10:19.661Z,98770.63
2023-03-07T14:12:55.627Z,98768.81
2023-03-07T14:15:27.211Z,98767.94
2023-03-07T14:17:59.542Z,98772.63
2023-03-07T14:20:31.100Z,98759.53
2023-03-07T14:23:02.766Z,98758.06
2023-03-07T14:25:34.286Z,98756.31
2023-03-07T14:28:06.604Z,98751.91
2023-03-07T14:30:38.133Z,98749.50
2023-03-07T14:33:09.974Z,98747.56
2023-03-07T14:35:41.508Z,98746.63
2023-03-07T14:38:13.385Z,98759.25
2023-03-07T14:40:45.580Z,98763.75
2023-03-07T14:43:17.461Z,98756.00
2023-03-07T14:45:49.886Z,98753.66
2023-03-07T14:48:21.669Z,98769.00
2023-03-07T14:50:53.484Z,98757.59
2023-03-07T14:53:25.316Z,98769.53
2023-03-07T14:55:56.803Z,98761.78
2023-03-07T14:58:28.313Z,98763.66
2023-03-07T15:00:59.906Z,98761.66
2023-03-07T15:03:31.457Z,98766.69
2023-03-07T15:06:02.995Z,98769.69
2023-03-07T15:08:38.869Z,98758.78
2023-03-07T15:11:13.194Z,98763.09
2023-03-07T15:13:46.052Z,98765.59
2023-03-07T15:16:17.656Z,98766.88
2023-03-07T15:18:49.586Z,98758.28
2023-03-07T15:21:21.117Z,98591.28
2023-03-07T15:23:53.898Z,98757.63
2023-03-07T15:26:26.488Z,98759.69
2023-03-07T15:28:58.599Z,98771.78
2023-03-07T15:31:30.178Z,98769.31
2023-03-07T15:34:01.885Z,98766.81
2023-03-07T15:36:37.175Z,98776.84
2023-03-07T15:39:09.020Z,98764.63
2023-03-07T15:41:40.533Z,98772.63
2023-03-07T15:44:12.145Z,98703.97
2023-03-07T15:46:43.637Z,98777.44
2023-03-07T15:49:15.346Z,98789.47
2023-03-07T15:51:47.210Z,98790.44
2023-03-07T15:54:18.730Z,98801.16
2023-03-07T15:56:50.274Z,98796.41
2023-03-07T15:59:21.807Z,98802.63
2023-03-07T16:01:53.845Z,98808.38
2023-03-07T16:04:25.424Z,98813.91
2023-03-07T16:06:57.303Z,98804.88
2023-03-07T16:09:28.813Z,98803.06
2023-03-07T16:12:00.536Z,98815.66
2023-03-07T16:14:32.026Z,98811.22
2023-03-07T16:17:03.778Z,98811.22
2023-03-07T16:19:35.317Z,98816.84
2023-03-07T16:22:06.912Z,98814.59
2023-03-07T16:24:38.414Z,98805.94
2023-03-07T16:27:10.154Z,98807.56
2023-03-07T16:29:42.215Z,98815.63
2023-03-07T16:32:14.113Z,98818.88
2023-03-07T16:34:45.755Z,98817.38
2023-03-07T16:37:17.651Z,98805.63
2023-03-07T16:39:49.164Z,98819.41
2023-03-07T16:42:20.781Z,98826.50
2023-03-07T16:44:52.333Z,98826.53
2023-03-07T16:47:23.933Z,98834.88
2023-03-07T16:49:55.449Z,98830.00
2023-03-07T16:52:26.972Z,98831.25
2023-03-07T16:54:58.484Z,98840.16
2023-03-07T16:57:30.031Z,98836.88
2023-03-07T17:00:01.600Z,98833.91
2023-03-07T17:02:33.272Z,98842.81
2023-03-07T17:05:04.826Z,98842.44
2023-03-07T17:07:36.683Z,98842.59
2023-03-07T17:10:08.210Z,98851.91
2023-03-07T17:12:40.344Z,98858.59
2023-03-07T17:15:11.869Z,98855.34
2023-03-07T17:17:43.393Z,98862.44
2023-03-07T17:20:14.932Z,98862.44
2023-03-07T17:22:46.902Z,98860.81
2023-03-07T17:25:18.453Z,98856.38
2023-03-07T17:27:50.316Z,98856.78
2023-03-07T17:30:21.845Z,98864.66
2023-03-07T17:32:53.833Z,98873.78
2023-03-07T17:35:25.424Z,98879.03
2023-03-07T17:37:57.003Z,98883.91
2023-03-07T17:40:28.541Z,98885.72
2023-03-07T17:43:00.448Z,98879.66
2023-03-07T17:45:32.058Z,98888.16
2023-03-07T17:48:03.815Z,98884.94
2023-03-07T17:50:35.453Z,98881.91
2023-03-07T17:53:07.288Z,98889.19
2023-03-07T17:55:38.941Z,98871.63
2023-03-07T17:58:11.081Z,98887.16
2023-03-07T18:00:42.604Z,98888.81
2023-03-07T18:03:14.461Z,98893.66
2023-03-07T18:05:45.959Z,98888.41
2023-03-07T18:08:17.635Z,98888.41
2023-03-07T18:10:49.183Z,98895.69
2023-03-07T18:13:24.477Z,98898.72
2023-03-07T18:15:55.984Z,98895.28
2023-03-07T18:18:27.886Z,98904.56
2023-03-07T18:20:59.395Z,98906.19
2023-03-07T18:23:30.908Z,98899.91
2023-03-07T18:26:02.429Z,98894.47
2023-03-07T18:28:34.026Z,98891.47
2023-03-07T18:31:05.551Z,98898.72
2023-03-07T18:33:37.284Z,98894.69
2023-03-07T18:36:08.784Z,98896.13
2023-03-07T18:38:40.626Z,98890.88
2023-03-07T18:41:12.138Z,98902.78
2023-03-07T18:43:44.004Z,98911.06
2023-03-07T18:46:15.628Z,98909.47
2023-03-07T18:48:47.214Z,98903.59
2023-03-07T18:51:18.785Z,98909.47
2023-03-07T18:53:50.771Z,98912.69
2023-03-07T18:56:22.308Z,98913.50
2023-03-07T18:58:56.941Z,98917.53
2023-03-07T19:01:28.533Z,98918.16
2023-03-07T19:04:03.201Z,98916.13
2023-03-07T19:06:35.050Z,98908.66
2023-03-07T19:09:06.880Z,98927.41
2023-03-07T19:11:38.390Z,98928.84
2023-03-07T19:14:10.248Z,98932.09
2023-03-07T19:16:41.929Z,98922.56
2023-03-07T19:19:13.567Z,98923.78
2023-03-07T19:21:45.056Z,98929.84
2023-03-07T19:24:16.984Z,98935.09
2023-03-07T19:26:48.469Z,98935.28
2023-03-07T19:29:20.016Z,98936.91
2023-03-07T19:31:51.601Z,98943.16
2023-03-07T19:34:23.378Z,98943.78
2023-03-07T19:36:54.953Z,98948.22
2023-03-07T19:39:26.829Z,98959.31
2023-03-07T19:41:58.370Z,98949.63
2023-03-07T19:44:29.952Z,98946.41
2023-03-07T19:47:01.445Z,98948.63
2023-03-07T19:49:32.963Z,98951.44
2023-03-07T19:52:04.467Z,98964.75
2023-03-07T19:54:36.050Z,98965.56
2023-03-07T19:57:09.191Z,98967.38
2023-03-07T19:59:41.101Z,98954.47
2023-03-07T20:02:12.614Z,98968.00
2023-03-07T20:04:44.396Z,98959.13
2023-03-07T20:07:15.893Z,98957.69
2023-03-07T20:09:47.755Z,98974.44
2023-03-07T20:12:19.237Z,98968.59
2023-03-07T20:14:51.049Z,98971.63
2023-03-07T20:17:22.588Z,98983.75
2023-03-07T20:19:56.139Z,98990.00
2023-03-07T20:22:28.521Z,98991.81
2023-03-07T20:25:00.429Z,98990.59
2023-03-07T20:27:32.023Z,98998.06
2023-03-07T20:30:04.234Z,99004.31
2023-03-07T20:32:35.919Z,98995.03
2023-03-07T20:35:07.410Z,98999.06
2023-03-07T20:37:38.929Z,99009.97
2023-03-07T20:40:10.442Z,99013.63
2023-03-07T20:42:42.247Z,99013.59
2023-03-07T20:45:13.746Z,99013.41
2023-03-07T20:47:45.566Z,99013.81
2023-03-07T20:50:17.072Z,98821.88
2023-03-07T20:52:48.857Z,99022.91
2023-03-07T20:55:20.431Z,99023.69
2023-03-07T20:57:51.953Z,99031.97
2023-03-07T21:00:23.439Z,99024.69
2023-03-07T21:03:05.480Z,99031.16
2023-03-07T21:05:37.678Z,99039.03
2023-03-07T21:08:09.873Z,99033.78
2023-03-07T21:10:41.384Z,99037.41
2023-03-07T21:13:13.435Z,99041.84
2023-03-07T21:15:44.926Z,99047.28
2023-03-07T21:18:16.825Z,99058.59
2023-03-07T21:20:48.406Z,99065.88
2023-03-07T21:23:20.254Z,99070.09
2023-03-07T21:25:51.736Z,99065.25
2023-03-07T21:28:23.573Z,99065.03
2023-03-07T21:30:55.070Z,99076.75
2023-03-07T21:33:27.052Z,99067.25
2023-03-07T21:35:58.670Z,99074.50
2023-03-07T21:38:30.210Z,99076.50
2023-03-07T21:41:01.710Z,99074.50
2023-03-07T21:43:33.241Z,99081.75
2023-03-07T21:46:04.946Z,99090.25
2023-03-07T21:48:36.679Z,99087.84
2023-03-07T21:51:08.186Z,99081.75
2023-03-07T21:53:39.878Z,99094.66
2023-03-07T21:56:11.399Z,99093.84
2023-03-07T21:58:43.233Z,98523.72
2023-03-07T22:01:14.879Z,99099.09
2023-03-07T22:03:46.833Z,99101.91
2023-03-07T22:06:18.446Z,99102.72
2023-03-07T22:08:49.959Z,99106.53
2023-03-07T22:11:21.513Z,99110.38
2023-03-07T22:13:53.025Z,99108.56
2023-03-07T22:16:24.568Z,99110.78
2023-03-07T22:18:56.488Z,99120.66
2023-03-07T22:21:28.103Z,99120.47
2023-03-07T22:24:01.383Z,99132.16
2023-03-07T22:26:32.996Z,99121.69
2023-03-07T22:29:04.861Z,99124.69
2023-03-07T22:31:36.454Z,99127.31
2023-03-07T22:34:08.213Z,99130.13
2023-03-07T22:36:39.732Z,99136.81
2023-03-07T22:39:11.240Z,99135.38
2023-03-07T22:41:42.752Z,99132.91
2023-03-07T22:44:16.239Z,99138.97
2023-03-07T22:46:48.078Z,99144.22
2023-03-07T22:49:19.595Z,99134.50
2023-03-07T22:51:51.079Z,99143.81
2023-03-07T22:54:22.833Z,99139.56
2023-03-07T22:56:54.332Z,99143.81
2023-03-07T22:59:26.183Z,99138.97
2023-03-07T23:01:57.733Z,99142.38
2023-03-07T23:04:30.490Z,99146.03
2023-03-07T23:07:02.052Z,99154.06
2023-03-07T23:09:33.583Z,99149.44
2023-03-07T23:12:05.394Z,99149.03
2023-03-07T23:14:37.130Z,99144.81
2023-03-07T23:17:08.612Z,99148.66
2023-03-07T23:19:40.532Z,99145.81
2023-03-07T23:22:12.477Z,99151.84
2023-03-07T23:24:44.294Z,99147.38
2023-03-07T23:27:15.784Z,99148.19
2023-03-07T23:29:47.529Z,99152.63
2023-03-07T23:32:19.232Z,99157.25
2023-03-07T23:34:51.073Z,99157.84
2023-03-07T23:37:22.574Z,99165.50
2023-03-07T23:39:54.113Z,99157.38
2023-03-07T23:42:26.060Z,99162.63
2023-03-07T23:44:57.634Z,99168.69
2023-03-07T23:47:29.323Z,99169.44
2023-03-07T23:50:00.914Z,99173.06
2023-03-07T23:52:32.437Z,99174.31
2023-03-07T23:55:03.937Z,99184.78
2023-03-07T23:57:36.651Z,99193.03
